Guernica, Argentina
Current Conditions -  °F | °C
As of 7:00 AM on Saturday 01 Nov 2014 (Local Time) from SAEZ Reporting Station
Broken Clouds Broken Clouds  
Wind Chill: 54°   Ceiling: 4200
Heat Index: 54°   Visibility: 6mi
Dew Point: 37°   Wind: 15mph
Humidity: 54%   Direction: 150°SSE
Pressure: 30.24"   Gusts: NA
Location:  34.93°S, 58.42°W
Report Text: SAEZ 011000Z 15013KT 9999 BKN042 BKN100 12/03 Q1024
Loading
Personal Weather Stations






























Interactive Weather Map
Tropical Storm Tracking
New forecast layout! Learn more

10-Day Weather Forecast

Advertisements
Track Severe Weather on mobile